PHTO/ITO METAR and TAF weather

Enter ICAO airport designator
Station Type Date Time Source
PHTO METAR 2019/08/24 18:53 UTC NOAA

PHTO 241853Z 00000KT 10SM OVC055 28/22 A3000 RMK AO2 SLP158 T02830217


Station Type Date Time Source
PHTO Decoded METAR 2019/08/24 18:53 UTC NOAA

Station name not available
Aug 24, 2019 - 02:53 PM EDT / 2019.08.24 1853 UTC
Wind: Calm:0
Visibility: 10 mile(s):0
Sky conditions: overcast
Temperature: 82.9 F (28.3 C)
Dew Point: 71.1 F (21.7 C)
Relative Humidity: 67%
Pressure (altimeter): 30 in. Hg (1015 hPa)
ob: PHTO 241853Z 00000KT 10SM OVC055 28/22 A3000 RMK AO2 SLP158 T02830217
cycle: 19

Station Type Date Time Source
PHTO TAF 2019/08/24 18:30 UTC NOAA

TAF PHTO 241728Z 2418/2518 22004KT P6SM VCSH FEW025 BKN035 OVC060
FM242100 10008KT P6SM VCSH SCT025 BKN045
FM251200 23005KT P6SM VCSH BKN025 OVC040

Example: see airport list